Randolph, Minnesota
Current Conditions -  °F | °C
As of 9:34 AM on Friday 24 Oct 2014 (Local Time) from KSYN Reporting Station
Broken Clouds Broken Clouds  
Wind Chill: 56°   Ceiling: 4000
Heat Index: 56°   Visibility: 10mi
Dew Point: 49°   Wind: 5mph
Humidity: 77%   Direction: 180°S
Pressure: 29.89"   Gusts: NA
Location:  44.53°N, 93.02°W
Report Text: KSYN 241434Z AUTO 18004KT 10SM SCT029 BKN040 BKN047 13/09 A2989 RMK AO2 T01310092
Loading
Personal Weather Stations






























Interactive Weather Map
Tropical Storm Tracking
New forecast layout! Learn more

10-Day Weather Forecast

Advertisements
Track Severe Weather on mobile